Time;durP1;ratioP1;P1;durP2;ratioP2;P2;SDS_P1;SDS_P2;PMS_P1;PMS_P2;Temp;Humidity;BMP_temperature;BMP_pressure;BME280_temperature;BME280_humidity;BME280_pressure;Samples;Min_cycle;Max_cycle;Signal;HPM_P1;HPM_P2
2020/12/24 00:00:11;;;;;;;1.73;1.63;;;12.50;52.20;;;;;;5031492;28;20187;-67
2020/12/24 00:02:36;;;;;;;1.60;1.50;;;12.60;50.20;;;;;;5031360;28;20176;-68
2020/12/24 00:05:02;;;;;;;2.70;1.23;;;12.60;48.70;;;;;;5031241;28;20684;-67
2020/12/24 00:07:28;;;;;;;1.23;1.13;;;12.70;44.90;;;;;;5031279;28;20177;-67
2020/12/24 00:09:53;;;;;;;1.10;1.00;;;12.70;45.10;;;;;;5031185;28;20506;-67
2020/12/24 00:12:19;;;;;;;1.30;1.20;;;12.70;44.00;;;;;;5031117;28;20563;-67
2020/12/24 00:14:44;;;;;;;1.70;1.60;;;12.70;42.50;;;;;;5031091;28;20671;-68
2020/12/24 00:17:10;;;;;;;1.30;1.20;;;12.70;41.80;;;;;;5031066;28;20184;-67
2020/12/24 00:19:35;;;;;;;1.97;1.07;;;12.70;40.60;;;;;;5031109;28;20181;-67
2020/12/24 00:22:01;;;;;;;1.30;1.20;;;12.70;40.50;;;;;;5031017;28;20188;-67
2020/12/24 00:24:27;;;;;;;0.90;0.90;;;12.70;39.20;;;;;;5031018;28;20602;-67
2020/12/24 00:26:52;;;;;;;1.13;1.03;;;12.70;39.80;;;;;;5031063;28;20218;-67
2020/12/24 00:29:18;;;;;;;1.10;1.00;;;12.70;39.30;;;;;;5030772;28;20253;-67
2020/12/24 00:31:43;;;;;;;1.00;1.00;;;12.70;38.80;;;;;;5031032;28;20251;-67
2020/12/24 00:34:09;;;;;;;1.77;1.00;;;12.70;39.70;;;;;;5030901;28;20196;-68
2020/12/24 00:36:34;;;;;;;1.20;1.10;;;12.70;38.80;;;;;;5030955;28;20201;-67
2020/12/24 00:39:00;;;;;;;1.77;1.30;;;12.70;38.30;;;;;;5030663;28;20169;-67
2020/12/24 00:41:26;;;;;;;0.70;0.70;;;12.70;38.40;;;;;;5030814;28;20238;-67
2020/12/24 00:43:52;;;;;;;1.10;1.10;;;12.70;39.20;;;;;;5030717;28;20431;-67
2020/12/24 00:46:19;;;;;;;1.03;1.03;;;12.70;39.00;;;;;;5030773;28;20459;-67
2020/12/24 00:48:44;;;;;;;1.33;0.93;;;12.60;40.20;;;;;;5030995;28;20410;-67
2020/12/24 00:51:11;;;;;;;1.30;1.20;;;12.40;40.40;;;;;;5030834;28;20748;-67
2020/12/24 00:53:36;;;;;;;3.27;1.20;;;12.40;42.10;;;;;;5030741;28;20609;-67
2020/12/24 00:56:02;;;;;;;0.90;0.90;;;12.40;42.50;;;;;;5030749;28;20498;-68
2020/12/24 00:58:27;;;;;;;1.00;1.00;;;12.30;42.00;;;;;;5030760;28;20200;-67
2020/12/24 01:00:53;;;;;;;1.07;1.07;;;12.30;42.50;;;;;;5030752;28;20177;-67
2020/12/24 01:03:18;;;;;;;1.10;1.00;;;12.30;43.60;;;;;;5033686;28;20268;-67
2020/12/24 01:05:44;;;;;;;0.90;0.90;;;12.30;42.90;;;;;;5034590;28;20789;-67
2020/12/24 01:08:09;;;;;;;1.27;1.17;;;12.30;43.60;;;;;;5034489;28;20176;-67
2020/12/24 01:10:35;;;;;;;1.33;1.00;;;12.30;43.60;;;;;;5034557;28;20253;-67
2020/12/24 01:13:00;;;;;;;1.63;1.00;;;12.30;43.60;;;;;;5034434;28;20275;-68
2020/12/24 01:15:26;;;;;;;1.20;1.10;;;12.30;44.20;;;;;;5034525;28;20303;-67
2020/12/24 01:17:51;;;;;;;1.10;1.00;;;12.30;45.60;;;;;;5034280;28;20216;-67
2020/12/24 01:20:17;;;;;;;2.43;1.33;;;12.40;46.30;;;;;;5034407;28;20173;-67
2020/12/24 01:22:42;;;;;;;1.23;1.00;;;12.20;47.30;;;;;;5034210;28;20185;-67
2020/12/24 01:25:08;;;;;;;1.47;1.37;;;12.10;48.40;;;;;;5034278;28;20196;-67
2020/12/24 01:27:33;;;;;;;1.17;1.17;;;12.00;48.70;;;;;;5034161;28;20793;-67
2020/12/24 01:29:59;;;;;;;1.40;1.07;;;12.00;48.70;;;;;;5034238;28;20204;-67
2020/12/24 01:32:25;;;;;;;0.90;0.90;;;12.20;49.60;;;;;;5034220;28;20192;-67
2020/12/24 01:34:50;;;;;;;1.20;1.10;;;12.10;49.90;;;;;;5034063;28;20663;-67
2020/12/24 01:37:16;;;;;;;1.30;1.20;;;12.20;50.20;;;;;;5033924;28;20181;-67
2020/12/24 01:39:42;;;;;;;1.23;1.20;;;12.20;49.90;;;;;;5033965;28;20718;-68
2020/12/24 01:42:07;;;;;;;1.23;1.13;;;11.90;49.70;;;;;;5033961;28;20172;-67
2020/12/24 01:44:33;;;;;;;0.87;0.83;;;12.00;50.30;;;;;;5033825;28;20461;-67
2020/12/24 01:46:58;;;;;;;1.10;1.10;;;11.90;49.90;;;;;;5033804;28;20191;-68
2020/12/24 01:49:24;;;;;;;2.43;1.30;;;11.90;51.00;;;;;;5033785;28;20168;-67
2020/12/24 01:51:52;;;;;;;1.53;1.43;;;12.10;50.50;;;;;;5033833;28;20588;-67
2020/12/24 01:54:19;;;;;;;2.20;1.40;;;12.20;49.70;;;;;;5033620;28;20711;-67
2020/12/24 01:56:46;;;;;;;1.73;1.50;;;12.10;50.10;;;;;;5033619;28;20395;-67
2020/12/24 01:59:15;;;;;;;1.43;1.10;;;12.00;51.30;;;;;;5033446;28;20422;-67
2020/12/24 02:01:47;;;;;;;1.20;1.20;;;12.00;50.90;;;;;;5033749;28;20407;-67
2020/12/24 02:04:13;;;;;;;1.50;1.40;;;12.00;50.80;;;;;;5033464;28;20450;-67
2020/12/24 02:06:43;;;;;;;0.90;0.90;;;12.00;50.90;;;;;;5033526;28;20960;-67
2020/12/24 02:09:10;;;;;;;1.37;1.27;;;12.00;51.00;;;;;;5033333;28;20427;-67
2020/12/24 02:11:37;;;;;;;1.63;1.17;;;12.00;49.10;;;;;;5033503;28;20890;-67
2020/12/24 02:14:03;;;;;;;1.47;0.87;;;12.00;50.40;;;;;;5032295;28;20434;-67
2020/12/24 02:16:28;;;;;;;1.43;1.33;;;12.00;48.10;;;;;;5033416;28;20420;-67
2020/12/24 02:18:54;;;;;;;1.20;1.10;;;12.00;47.20;;;;;;5033252;28;20213;-67
2020/12/24 02:21:19;;;;;;;1.27;1.17;;;12.10;48.50;;;;;;5033286;28;20639;-67
2020/12/24 02:23:45;;;;;;;2.60;1.07;;;12.00;45.00;;;;;;5033171;28;20283;-67
2020/12/24 02:26:11;;;;;;;1.00;1.00;;;11.90;44.20;;;;;;5033179;28;20716;-67
2020/12/24 02:28:36;;;;;;;1.00;1.00;;;11.90;44.20;;;;;;5033070;28;20165;-67
2020/12/24 02:31:03;;;;;;;1.13;1.03;;;11.80;41.70;;;;;;5033245;28;20422;-67
2020/12/24 02:33:28;;;;;;;1.17;0.90;;;11.80;39.60;;;;;;5043337;28;20194;-67
2020/12/24 02:35:55;;;;;;;0.97;0.97;;;11.70;39.90;;;;;;5072916;28;20903;-67
2020/12/24 02:38:20;;;;;;;2.40;1.13;;;11.80;40.50;;;;;;5072776;28;20780;-67
2020/12/24 02:40:46;;;;;;;1.13;0.97;;;11.80;40.60;;;;;;5072803;28;20493;-67
2020/12/24 02:43:12;;;;;;;1.20;1.10;;;11.90;41.00;;;;;;5072750;28;20218;-67
2020/12/24 02:45:37;;;;;;;1.47;0.80;;;11.80;40.30;;;;;;5072664;28;20210;-67
2020/12/24 02:48:03;;;;;;;0.73;0.73;;;11.70;40.80;;;;;;5072512;28;20172;-67
2020/12/24 02:50:29;;;;;;;1.03;1.00;;;11.70;40.70;;;;;;5072596;28;20178;-67
2020/12/24 02:52:54;;;;;;;1.07;1.07;;;11.70;40.30;;;;;;5072440;28;20520;-67
2020/12/24 02:55:20;;;;;;;1.77;1.20;;;11.70;41.10;;;;;;5072557;28;20175;-67
2020/12/24 02:57:45;;;;;;;1.33;0.90;;;11.80;40.00;;;;;;5072324;28;20167;-67
2020/12/24 03:00:12;;;;;;;1.00;1.00;;;11.70;40.10;;;;;;5072404;28;20207;-67
2020/12/24 03:02:38;;;;;;;1.90;1.10;;;11.70;39.50;;;;;;5072397;28;20183;-67
2020/12/24 03:05:05;;;;;;;1.00;1.00;;;11.50;40.20;;;;;;5072274;28;20445;-67
2020/12/24 03:07:30;;;;;;;1.23;1.17;;;11.60;41.00;;;;;;5072195;28;20777;-67
2020/12/24 03:09:56;;;;;;;1.10;1.00;;;11.50;40.60;;;;;;5072165;28;20398;-67
2020/12/24 03:12:23;;;;;;;0.87;0.87;;;11.60;40.80;;;;;;5072179;28;20560;-67
2020/12/24 03:14:49;;;;;;;0.90;0.90;;;11.60;40.30;;;;;;5072034;28;20192;-67
2020/12/24 03:17:14;;;;;;;0.90;0.90;;;11.40;40.70;;;;;;5071898;28;20416;-67
2020/12/24 03:19:39;;;;;;;0.70;0.70;;;11.50;41.40;;;;;;5071950;28;20183;-67
2020/12/24 03:22:05;;;;;;;1.17;1.07;;;11.40;41.00;;;;;;5071877;28;20218;-67
2020/12/24 03:24:30;;;;;;;1.43;0.93;;;11.50;42.00;;;;;;5071604;28;20235;-67
2020/12/24 03:26:56;;;;;;;0.93;0.93;;;11.40;41.40;;;;;;5071958;28;20218;-67
2020/12/24 03:29:21;;;;;;;0.80;0.80;;;11.30;42.00;;;;;;5071692;28;20249;-67
2020/12/24 03:31:47;;;;;;;1.13;1.00;;;11.20;42.70;;;;;;5071868;28;20174;-67
2020/12/24 03:34:13;;;;;;;0.90;0.90;;;11.40;42.40;;;;;;5071715;28;20270;-67
2020/12/24 03:36:38;;;;;;;1.07;0.80;;;11.40;42.80;;;;;;5071759;28;20531;-67
2020/12/24 03:39:04;;;;;;;0.90;0.90;;;11.40;42.90;;;;;;5071515;28;20229;-67
2020/12/24 03:41:29;;;;;;;1.10;0.80;;;11.30;42.80;;;;;;5071538;28;20171;-67
2020/12/24 03:43:55;;;;;;;1.20;1.10;;;11.40;42.80;;;;;;5071506;28;20670;-67
2020/12/24 03:46:20;;;;;;;0.80;0.80;;;11.40;42.90;;;;;;5071435;28;20294;-67
2020/12/24 03:48:46;;;;;;;0.77;0.77;;;11.30;42.80;;;;;;5071254;28;20715;-67
2020/12/24 03:51:11;;;;;;;2.40;1.00;;;11.40;42.80;;;;;;5071460;28;20754;-67
2020/12/24 03:53:36;;;;;;;1.10;1.00;;;11.20;43.70;;;;;;5071347;28;20183;-67
2020/12/24 03:56:03;;;;;;;1.27;1.00;;;10.80;45.50;;;;;;5071365;28;20198;-67
2020/12/24 03:58:28;;;;;;;0.83;0.83;;;10.80;45.60;;;;;;5071159;28;20179;-66
2020/12/24 04:00:54;;;;;;;1.40;1.00;;;10.70;46.30;;;;;;5071386;28;20406;-67
2020/12/24 04:03:19;;;;;;;0.73;0.73;;;10.90;46.00;;;;;;5071263;28;20191;-67
2020/12/24 04:05:46;;;;;;;1.13;1.00;;;11.00;46.20;;;;;;5071160;28;20207;-66
2020/12/24 04:08:11;;;;;;;1.27;1.00;;;10.80;46.40;;;;;;5071209;28;20229;-67
2020/12/24 04:10:37;;;;;;;1.17;1.07;;;10.50;46.20;;;;;;5071178;28;20433;-67
2020/12/24 04:13:02;;;;;;;0.90;0.90;;;10.70;46.70;;;;;;5071115;28;20191;-67
2020/12/24 04:15:28;;;;;;;1.03;1.00;;;10.70;46.80;;;;;;5071152;28;20172;-67
2020/12/24 04:17:53;;;;;;;1.40;1.30;;;10.60;46.00;;;;;;5070906;28;20201;-67
2020/12/24 04:20:19;;;;;;;1.20;1.10;;;10.70;46.20;;;;;;5071043;28;20184;-67
2020/12/24 04:22:44;;;;;;;1.07;1.03;;;10.80;46.20;;;;;;5070798;28;20190;-67
2020/12/24 04:25:10;;;;;;;0.97;0.97;;;10.80;45.90;;;;;;5071207;28;20205;-66
2020/12/24 04:27:35;;;;;;;0.90;0.90;;;10.90;45.90;;;;;;5071131;28;20167;-67
2020/12/24 04:30:01;;;;;;;2.00;1.30;;;11.00;44.70;;;;;;5071181;28;20190;-68
2020/12/24 04:32:26;;;;;;;1.10;1.00;;;11.00;43.50;;;;;;5071272;28;20569;-67
2020/12/24 04:34:52;;;;;;;1.30;1.20;;;11.10;44.50;;;;;;5054318;28;20286;-67
2020/12/24 04:37:18;;;;;;;1.20;1.10;;;11.20;44.90;;;;;;5050116;28;20176;-67
2020/12/24 04:39:44;;;;;;;0.80;0.80;;;11.20;44.50;;;;;;5050758;28;20176;-67
2020/12/24 04:42:12;;;;;;;1.37;1.20;;;11.10;44.70;;;;;;5050837;28;20768;-67
2020/12/24 04:44:38;;;;;;;0.93;0.93;;;10.90;45.10;;;;;;5050668;28;20446;-67
2020/12/24 04:47:05;;;;;;;1.63;1.07;;;10.90;46.00;;;;;;5050575;28;20741;-68
2020/12/24 04:49:31;;;;;;;1.50;1.00;;;10.90;46.30;;;;;;5050651;28;20207;-67
2020/12/24 04:51:57;;;;;;;1.33;1.07;;;11.10;44.60;;;;;;5050682;28;20476;-67
2020/12/24 04:54:23;;;;;;;1.50;1.40;;;10.50;45.70;;;;;;5050548;28;20454;-67
2020/12/24 04:56:49;;;;;;;0.80;0.80;;;10.40;47.40;;;;;;5050707;28;20191;-67
2020/12/24 04:59:18;;;;;;;1.37;1.20;;;10.60;47.00;;;;;;5050490;28;20179;-67
2020/12/24 05:01:43;;;;;;;0.83;0.83;;;10.70;45.60;;;;;;5050573;28;20167;-67
2020/12/24 05:04:09;;;;;;;1.60;1.10;;;10.80;45.50;;;;;;5049838;28;20426;-67
2020/12/24 05:06:34;;;;;;;1.20;1.10;;;10.70;45.50;;;;;;5049163;28;20245;-67
2020/12/24 05:09:01;;;;;;;1.43;0.90;;;10.70;45.40;;;;;;5049352;28;20170;-67
2020/12/24 05:11:28;;;;;;;1.87;1.10;;;10.70;45.30;;;;;;5050547;28;20172;-67
2020/12/24 05:13:56;;;;;;;1.40;1.37;;;10.70;45.50;;;;;;5048640;28;20500;-67
2020/12/24 05:16:21;;;;;;;0.97;0.97;;;10.70;45.80;;;;;;5033128;28;20443;-67
2020/12/24 05:18:48;;;;;;;0.90;0.90;;;10.80;44.90;;;;;;5030349;28;20473;-67
2020/12/24 05:21:30;;;;;;;1.03;1.03;;;10.60;45.40;;;;;;5030585;28;20226;-67
2020/12/24 05:23:55;;;;;;;0.90;0.90;;;10.70;44.70;;;;;;5029403;28;20459;-67
2020/12/24 05:26:21;;;;;;;1.37;1.27;;;10.50;45.10;;;;;;5030373;28;20470;-67
2020/12/24 05:28:46;;;;;;;1.10;1.10;;;10.70;46.30;;;;;;5030202;28;20169;-67
2020/12/24 05:31:31;;;;;;;0.77;0.77;;;10.90;44.60;;;;;;5030607;28;20176;-67
2020/12/24 05:33:56;;;;;;;0.90;0.90;;;10.70;43.60;;;;;;5030600;28;20197;-67
2020/12/24 05:36:23;;;;;;;0.90;0.90;;;10.80;44.60;;;;;;5030436;28;20418;-67
2020/12/24 05:38:50;;;;;;;1.20;1.10;;;10.80;44.00;;;;;;5030186;28;20212;-67
2020/12/24 05:41:36;;;;;;;4.00;1.20;;;10.80;44.10;;;;;;5030107;28;20407;-67
2020/12/24 05:44:08;;;;;;;1.10;1.10;;;10.90;43.80;;;;;;5029321;28;20513;-67
2020/12/24 05:46:44;;;;;;;0.90;0.90;;;10.50;43.90;;;;;;5029089;28;20455;-67
2020/12/24 05:49:21;;;;;;;1.30;1.20;;;10.60;44.90;;;;;;5032769;28;20445;-67
2020/12/24 05:51:54;;;;;;;1.00;1.00;;;10.80;44.00;;;;;;5034185;28;20407;-67
2020/12/24 05:54:20;;;;;;;0.83;0.83;;;10.50;45.00;;;;;;5034119;28;20526;-67
2020/12/24 05:56:46;;;;;;;1.30;1.20;;;10.40;44.30;;;;;;5034067;28;20407;-67
2020/12/24 05:59:18;;;;;;;1.83;1.10;;;10.40;45.30;;;;;;5033816;28;20407;-67
2020/12/24 06:02:16;;;;;;;1.47;1.00;;;10.30;45.30;;;;;;5033923;28;20400;-67
2020/12/24 06:04:45;;;;;;;1.70;1.20;;;10.60;44.80;;;;;;5033748;28;20865;-67
2020/12/24 06:07:19;;;;;;;1.43;1.33;;;10.30;44.50;;;;;;5033589;28;20487;-66
2020/12/24 06:09:46;;;;;;;1.17;1.07;;;10.40;45.20;;;;;;5033626;28;20821;-67
2020/12/24 06:12:23;;;;;;;1.70;1.23;;;10.70;44.40;;;;;;5032960;28;20466;-67
2020/12/24 06:14:55;;;;;;;1.13;1.13;;;10.70;43.70;;;;;;5033177;28;21174;-67
2020/12/24 06:17:22;;;;;;;2.20;1.10;;;10.90;42.70;;;;;;5033253;28;20438;-67
2020/12/24 06:19:48;;;;;;;1.53;1.20;;;10.80;43.40;;;;;;5033374;28;20411;-67
2020/12/24 06:22:15;;;;;;;1.90;1.20;;;10.70;43.20;;;;;;5033228;28;20519;-66
2020/12/24 06:24:51;;;;;;;1.63;1.30;;;10.60;43.80;;;;;;5033234;28;20205;-67
2020/12/24 06:27:22;;;;;;;1.27;1.20;;;10.80;43.30;;;;;;5033074;28;20410;-67
2020/12/24 06:29:51;;;;;;;1.40;1.30;;;11.00;42.50;;;;;;5033150;28;20470;-67
2020/12/24 06:32:19;;;;;;;2.83;1.50;;;10.50;42.50;;;;;;5033174;28;20411;-68
2020/12/24 06:34:44;;;;;;;2.60;1.60;;;10.30;43.60;;;;;;5032910;28;20902;-67
2020/12/24 06:37:20;;;;;;;1.73;1.43;;;10.30;43.70;;;;;;5032791;28;20546;-67
2020/12/24 06:39:53;;;;;;;1.47;1.30;;;10.40;44.80;;;;;;5032190;28;20204;-68
2020/12/24 06:42:39;;;;;;;1.50;1.40;;;10.00;44.30;;;;;;5031381;28;20411;-67
2020/12/24 06:45:13;;;;;;;1.47;1.37;;;10.10;44.50;;;;;;5031043;28;20538;-68
2020/12/24 06:47:39;;;;;;;1.13;1.10;;;10.30;45.10;;;;;;5030897;28;20443;-67
2020/12/24 06:50:34;;;;;;;1.57;1.10;;;10.20;45.20;;;;;;5030835;28;20461;-67
2020/12/24 06:53:18;;;;;;;1.90;1.47;;;10.10;44.80;;;;;;5030985;28;20423;-68
2020/12/24 06:55:44;;;;;;;2.20;1.40;;;10.10;44.10;;;;;;5032146;28;20483;-68
2020/12/24 06:58:39;;;;;;;1.83;1.50;;;10.00;44.40;;;;;;5032399;28;20494;-67
2020/12/24 07:01:04;;;;;;;3.13;1.73;;;9.90;45.90;;;;;;5031917;28;20717;-67
2020/12/24 07:03:30;;;;;;;3.13;1.40;;;10.00;45.30;;;;;;5032377;28;20435;-67
2020/12/24 07:05:56;;;;;;;2.07;1.43;;;9.80;45.60;;;;;;5032523;28;20254;-67
2020/12/24 07:08:33;;;;;;;3.73;1.80;;;9.60;47.80;;;;;;5032229;28;20411;-68
2020/12/24 07:11:04;;;;;;;2.03;1.60;;;9.70;46.50;;;;;;5032811;28;20164;-67
2020/12/24 07:13:37;;;;;;;4.80;1.60;;;9.50;47.20;;;;;;5032179;28;20423;-67
2020/12/24 07:16:04;;;;;;;1.20;1.20;;;9.80;47.40;;;;;;5032441;28;20968;-67
2020/12/24 07:18:31;;;;;;;1.50;1.40;;;9.90;45.70;;;;;;5031945;28;20926;-67
2020/12/24 07:21:08;;;;;;;3.03;1.53;;;9.70;46.30;;;;;;5032120;28;20892;-68
2020/12/24 07:23:36;;;;;;;4.30;1.33;;;10.10;45.00;;;;;;5031815;28;20463;-68
2020/12/24 07:26:04;;;;;;;1.73;1.40;;;9.90;44.60;;;;;;5031920;28;20459;-68
2020/12/24 07:28:32;;;;;;;5.87;1.40;;;10.10;43.50;;;;;;5032048;28;20407;-67
2020/12/24 07:31:00;;;;;;;1.67;1.40;;;9.70;45.20;;;;;;5031946;28;20407;-67
2020/12/24 07:33:27;;;;;;;1.47;1.37;;;10.00;43.50;;;;;;5031982;28;20774;-67
2020/12/24 07:35:53;;;;;;;4.40;1.77;;;10.10;42.90;;;;;;5031932;28;20415;-67
2020/12/24 07:38:23;;;;;;;2.80;1.40;;;10.00;42.20;;;;;;5031671;28;20415;-67
2020/12/24 07:40:49;;;;;;;2.00;1.80;;;9.80;44.00;;;;;;5031695;28;20418;-67
2020/12/24 07:43:14;;;;;;;2.13;1.73;;;9.90;44.80;;;;;;5031693;28;20431;-68
2020/12/24 07:45:42;;;;;;;1.83;1.53;;;10.10;42.80;;;;;;5031627;28;20200;-68
2020/12/24 07:48:19;;;;;;;4.90;1.80;;;10.20;42.60;;;;;;5031525;28;20207;-68
2020/12/24 07:50:45;;;;;;;2.80;1.50;;;10.20;41.40;;;;;;5031866;28;20890;-67
2020/12/24 07:53:16;;;;;;;3.27;1.37;;;10.30;41.40;;;;;;5031408;28;20431;-67
2020/12/24 07:55:42;;;;;;;3.03;1.77;;;10.30;40.70;;;;;;5031539;28;20404;-67
2020/12/24 07:58:09;;;;;;;3.90;1.80;;;10.20;40.20;;;;;;5031202;28;20481;-68
2020/12/24 08:00:46;;;;;;;2.80;1.63;;;10.40;40.40;;;;;;5031328;28;20184;-67
2020/12/24 08:03:17;;;;;;;3.10;1.70;;;10.50;38.90;;;;;;5031220;28;20434;-66
2020/12/24 08:05:47;;;;;;;5.10;1.80;;;10.60;38.90;;;;;;5031206;28;20451;-66
2020/12/24 08:08:20;;;;;;;2.70;1.40;;;10.60;39.10;;;;;;5031112;28;20411;-66
2020/12/24 08:10:46;;;;;;;1.77;1.40;;;10.60;38.00;;;;;;5031119;28;20782;-67
2020/12/24 08:13:12;;;;;;;2.50;1.83;;;10.70;38.00;;;;;;5029420;28;20438;-66
2020/12/24 08:15:43;;;;;;;4.33;1.40;;;10.40;39.60;;;;;;5027437;28;20559;-66
2020/12/24 08:18:11;;;;;;;1.73;1.40;;;10.50;37.90;;;;;;5048271;28;20441;-67
2020/12/24 08:20:58;;;;;;;2.20;1.60;;;10.60;37.60;;;;;;5050758;28;20461;-67
2020/12/24 08:23:35;;;;;;;3.80;1.80;;;10.60;39.10;;;;;;5050239;28;20450;-67
2020/12/24 08:26:01;;;;;;;2.70;1.60;;;10.40;38.20;;;;;;5050194;28;20576;-67
2020/12/24 08:28:27;;;;;;;1.97;1.87;;;10.40;38.60;;;;;;5050580;28;20901;-68
2020/12/24 08:30:53;;;;;;;1.20;1.10;;;10.30;39.10;;;;;;5050170;28;20410;-67
2020/12/24 08:33:19;;;;;;;3.40;1.50;;;10.20;38.30;;;;;;5050225;28;20430;-67
2020/12/24 08:35:45;;;;;;;2.00;1.60;;;10.30;38.90;;;;;;5050457;28;20512;-67
2020/12/24 08:38:18;;;;;;;3.87;1.97;;;10.20;38.50;;;;;;5050327;28;20175;-67
2020/12/24 08:40:44;;;;;;;3.40;3.20;;;10.10;39.20;;;;;;5050474;28;20410;-67
2020/12/24 08:43:11;;;;;;;2.50;1.40;;;10.10;39.20;;;;;;5050582;28;21001;-67
2020/12/24 08:45:47;;;;;;;3.07;1.70;;;10.00;39.40;;;;;;5050845;28;20462;-67
2020/12/24 08:48:30;;;;;;;3.33;1.37;;;10.00;39.40;;;;;;5050142;28;20409;-67
2020/12/24 08:50:55;;;;;;;1.83;1.73;;;10.00;40.00;;;;;;5050266;28;20417;-67
2020/12/24 08:53:22;;;;;;;1.80;1.10;;;9.90;40.80;;;;;;5050270;28;20419;-66
2020/12/24 08:55:48;;;;;;;1.50;1.30;;;9.80;41.20;;;;;;5050290;28;20199;-66
2020/12/24 08:58:13;;;;;;;2.77;1.57;;;9.90;40.70;;;;;;5050143;28;20835;-67
2020/12/24 09:00:39;;;;;;;1.57;1.47;;;9.80;41.30;;;;;;5050470;28;20218;-68
2020/12/24 09:03:21;;;;;;;1.70;1.40;;;9.80;41.70;;;;;;5050003;28;20203;-66
2020/12/24 09:05:47;;;;;;;1.77;1.50;;;9.90;42.00;;;;;;5050243;28;20191;-66
2020/12/24 09:08:22;;;;;;;1.60;1.40;;;10.00;40.30;;;;;;5050356;28;20414;-66
2020/12/24 09:10:47;;;;;;;2.03;1.50;;;10.00;40.00;;;;;;5049991;28;20232;-67
2020/12/24 09:13:13;;;;;;;1.60;1.50;;;10.10;40.60;;;;;;5049659;28;20434;-67
2020/12/24 09:15:38;;;;;;;1.30;1.20;;;10.10;39.30;;;;;;5050065;28;20639;-68
2020/12/24 09:18:07;;;;;;;2.27;1.40;;;10.10;39.60;;;;;;5040480;28;20184;-66
2020/12/24 09:20:35;;;;;;;2.13;1.70;;;10.00;40.00;;;;;;5030458;28;20662;-67
2020/12/24 09:23:07;;;;;;;1.90;1.63;;;10.00;39.90;;;;;;5031129;28;20455;-67
2020/12/24 09:25:43;;;;;;;1.43;1.33;;;10.00;40.30;;;;;;5033609;28;20447;-66
2020/12/24 09:28:24;;;;;;;3.50;1.70;;;10.00;41.10;;;;;;5033844;28;20414;-68
2020/12/24 09:30:53;;;;;;;1.17;1.10;;;10.00;40.50;;;;;;5033789;28;20451;-67
2020/12/24 09:33:19;;;;;;;1.90;1.10;;;10.00;40.00;;;;;;5033583;28;20457;-67
2020/12/24 09:35:44;;;;;;;2.73;1.30;;;9.90;41.00;;;;;;5033824;28;20516;-67
2020/12/24 09:38:10;;;;;;;3.63;1.50;;;10.00;39.90;;;;;;5033524;28;20169;-67
2020/12/24 09:40:36;;;;;;;2.20;1.10;;;10.10;41.20;;;;;;5033446;28;20268;-67
2020/12/24 09:43:02;;;;;;;1.57;1.47;;;10.10;39.30;;;;;;5033447;28;20788;-67
2020/12/24 09:45:28;;;;;;;1.90;1.10;;;10.10;39.50;;;;;;5033643;28;20228;-66
2020/12/24 09:47:55;;;;;;;1.90;1.77;;;10.20;40.10;;;;;;5033101;28;20834;-67
2020/12/24 09:50:20;;;;;;;1.90;1.80;;;10.10;39.60;;;;;;5033659;28;20408;-67
2020/12/24 09:52:46;;;;;;;1.10;1.00;;;10.30;40.40;;;;;;5033608;28;20465;-68
2020/12/24 09:55:11;;;;;;;2.53;2.33;;;10.30;39.30;;;;;;5033365;28;20172;-67
2020/12/24 09:57:37;;;;;;;1.40;1.30;;;10.30;38.90;;;;;;5033330;28;20177;-68
2020/12/24 10:00:08;;;;;;;2.70;1.40;;;10.20;39.00;;;;;;5033588;28;20181;-67
2020/12/24 10:02:34;;;;;;;5.90;1.77;;;10.60;53.60;;;;;;5033540;28;20192;-68
2020/12/24 10:04:59;;;;;;;2.47;1.60;;;12.10;41.70;;;;;;5033469;28;20958;-68
2020/12/24 10:07:25;;;;;;;4.10;1.80;;;13.00;42.50;;;;;;5033413;28;20248;-68
2020/12/24 10:09:51;;;;;;;1.10;1.00;;;13.10;44.90;;;;;;5033488;28;20181;-67
2020/12/24 10:12:24;;;;;;;1.67;1.20;;;13.40;35.70;;;;;;5033281;28;20168;-66
2020/12/24 10:14:50;;;;;;;2.97;1.50;;;13.30;34.40;;;;;;5033345;28;20423;-68
2020/12/24 10:17:16;;;;;;;2.43;1.40;;;13.30;33.90;;;;;;5033106;28;20757;-68
2020/12/24 10:19:43;;;;;;;2.10;1.97;;;13.70;38.20;;;;;;5033397;28;20408;-68
2020/12/24 10:22:09;;;;;;;2.40;1.13;;;12.80;32.30;;;;;;5033450;28;20192;-69
2020/12/24 10:24:36;;;;;;;5.80;1.50;;;11.70;34.00;;;;;;5032965;28;20422;-69
2020/12/24 10:27:02;;;;;;;1.53;1.37;;;11.20;35.80;;;;;;5033544;28;20400;-69
2020/12/24 10:29:27;;;;;;;1.10;1.10;;;11.00;36.90;;;;;;5033119;28;20937;-69
2020/12/24 10:31:53;;;;;;;1.40;1.30;;;10.90;37.90;;;;;;5033021;28;20214;-69
2020/12/24 10:34:18;;;;;;;1.00;1.00;;;10.90;37.40;;;;;;5032194;28;20251;-69
2020/12/24 10:36:44;;;;;;;3.53;1.43;;;10.70;37.50;;;;;;5033117;28;20168;-69
2020/12/24 10:39:10;;;;;;;1.20;1.10;;;10.60;38.00;;;;;;5032497;28;20226;-68
2020/12/24 10:41:37;;;;;;;1.97;1.20;;;10.60;38.50;;;;;;5032757;28;20608;-69
2020/12/24 10:44:02;;;;;;;2.67;1.63;;;10.50;37.90;;;;;;5033054;28;20266;-69
2020/12/24 10:46:28;;;;;;;1.30;1.20;;;10.50;38.20;;;;;;5032887;28;20854;-69
2020/12/24 10:48:54;;;;;;;1.57;1.20;;;10.50;38.30;;;;;;5032613;28;20177;-69
2020/12/24 10:51:19;;;;;;;2.40;1.00;;;10.50;38.30;;;;;;5032743;28;20214;-69
2020/12/24 10:53:48;;;;;;;1.10;1.00;;;10.60;38.90;;;;;;5032560;28;20192;-69
2020/12/24 10:56:14;;;;;;;2.63;1.10;;;10.60;39.10;;;;;;5032707;28;20526;-69
2020/12/24 10:58:44;;;;;;;1.20;0.90;;;10.70;38.30;;;;;;5032377;28;20427;-69
2020/12/24 11:01:14;;;;;;;1.07;1.07;;;10.60;37.90;;;;;;5032525;28;20956;-69
2020/12/24 11:03:40;;;;;;;2.63;1.70;;;10.70;38.00;;;;;;5032316;28;21023;-69
2020/12/24 11:06:06;;;;;;;1.57;1.17;;;10.60;38.40;;;;;;5032364;28;20546;-69
2020/12/24 11:08:32;;;;;;;1.40;0.80;;;10.70;38.00;;;;;;5032125;28;20418;-69
2020/12/24 11:10:58;;;;;;;0.90;0.80;;;10.60;38.20;;;;;;5032647;28;20407;-69
2020/12/24 11:13:23;;;;;;;0.90;0.90;;;10.70;38.20;;;;;;5032352;28;20219;-69
2020/12/24 11:15:49;;;;;;;1.47;1.37;;;10.60;37.60;;;;;;5032106;28;20173;-69
2020/12/24 11:18:14;;;;;;;0.80;0.80;;;10.80;38.20;;;;;;5032096;28;20172;-69
2020/12/24 11:20:40;;;;;;;1.40;0.73;;;10.70;37.60;;;;;;5030947;28;20583;-69
2020/12/24 11:23:06;;;;;;;0.90;0.90;;;10.80;37.70;;;;;;5031792;28;20222;-68
2020/12/24 11:25:31;;;;;;;0.90;0.90;;;10.70;37.50;;;;;;5032108;28;20528;-69
2020/12/24 11:27:57;;;;;;;1.90;1.30;;;10.70;37.90;;;;;;5032017;28;20181;-69
2020/12/24 11:30:22;;;;;;;1.10;1.00;;;10.80;37.60;;;;;;5032273;28;20187;-69
2020/12/24 11:32:48;;;;;;;0.97;0.97;;;10.90;37.70;;;;;;5032132;28;20258;-69
2020/12/24 11:35:13;;;;;;;0.80;0.80;;;11.00;37.70;;;;;;5031922;28;20709;-69
2020/12/24 11:37:39;;;;;;;1.20;1.10;;;11.00;37.20;;;;;;5031556;28;20184;-70
2020/12/24 11:40:04;;;;;;;2.50;1.20;;;10.90;37.40;;;;;;5031793;28;20200;-69
2020/12/24 11:42:33;;;;;;;3.27;1.10;;;11.00;37.10;;;;;;5031779;28;20172;-68
2020/12/24 11:44:59;;;;;;;1.10;1.10;;;10.90;37.40;;;;;;5031650;28;20200;-67
2020/12/24 11:47:25;;;;;;;1.63;0.70;;;10.90;37.50;;;;;;5029930;28;20443;-69
2020/12/24 11:49:50;;;;;;;0.93;0.90;;;10.90;37.40;;;;;;5029181;28;20427;-66
2020/12/24 11:52:16;;;;;;;2.73;1.10;;;11.00;37.00;;;;;;5034038;28;20409;-66
2020/12/24 11:54:42;;;;;;;1.27;1.20;;;11.00;37.00;;;;;;5034026;28;20196;-67
2020/12/24 11:57:08;;;;;;;1.20;1.00;;;11.00;37.10;;;;;;5027990;28;20171;-67
2020/12/24 11:59:33;;;;;;;1.00;1.00;;;10.90;37.00;;;;;;5028307;28;20400;-68
2020/12/24 12:01:59;;;;;;;2.13;0.90;;;10.90;37.40;;;;;;5029149;28;20671;-67
2020/12/24 12:04:26;;;;;;;0.80;0.80;;;11.00;37.40;;;;;;5028936;28;20200;-67
2020/12/24 12:06:52;;;;;;;1.43;1.17;;;10.80;37.20;;;;;;5028671;28;20295;-67
2020/12/24 12:09:17;;;;;;;1.10;0.80;;;10.90;37.30;;;;;;5029106;28;20502;-66
2020/12/24 12:11:44;;;;;;;1.90;1.73;;;10.90;36.90;;;;;;5029450;28;20168;-66
2020/12/24 12:14:10;;;;;;;1.33;1.00;;;10.90;37.00;;;;;;5029176;28;20802;-67
2020/12/24 12:16:36;;;;;;;0.97;0.97;;;10.90;37.30;;;;;;5028884;28;20491;-66
2020/12/24 12:19:01;;;;;;;1.53;0.80;;;11.00;37.20;;;;;;5028355;28;20981;-67
2020/12/24 12:21:26;;;;;;;2.00;1.13;;;10.90;37.30;;;;;;5028647;28;20193;-67
2020/12/24 12:23:52;;;;;;;1.40;1.30;;;11.00;37.40;;;;;;5028705;28;20671;-68
2020/12/24 12:26:17;;;;;;;1.93;1.00;;;11.00;37.40;;;;;;5028803;28;20283;-67
2020/12/24 12:28:46;;;;;;;1.10;1.07;;;11.00;37.50;;;;;;5028165;28;20204;-68
2020/12/24 12:31:16;;;;;;;1.00;1.00;;;10.90;37.40;;;;;;5028861;28;20461;-68
2020/12/24 12:33:42;;;;;;;1.23;1.00;;;10.90;36.70;;;;;;5028481;28;20439;-68
2020/12/24 12:36:08;;;;;;;0.70;0.70;;;10.90;36.90;;;;;;5028477;28;20462;-70
2020/12/24 12:38:33;;;;;;;0.83;0.83;;;10.90;36.90;;;;;;5027376;28;20180;-68
2020/12/24 12:40:59;;;;;;;1.37;0.90;;;11.00;36.90;;;;;;5040781;28;20426;-68
2020/12/24 12:43:24;;;;;;;1.93;1.17;;;11.10;37.50;;;;;;5048760;28;20220;-67
2020/12/24 12:45:50;;;;;;;2.47;2.23;;;11.10;36.00;;;;;;5049377;28;20675;-68
2020/12/24 12:48:15;;;;;;;1.17;1.07;;;11.10;36.40;;;;;;5050447;28;20215;-68